Time;durP1;ratioP1;P1;durP2;ratioP2;P2;SDS_P1;SDS_P2;PMS_P1;PMS_P2;Temp;Humidity;BMP_temperature;BMP_pressure;BME280_temperature;BME280_humidity;BME280_pressure;Samples;Min_cycle;Max_cycle;Signal;HPM_P1;HPM_P2
2023/04/14 00:00:56;;;;;;;5.45;1.80;;;6.90;99.90;;;;;;5053392;28;20133;-67
2023/04/14 00:03:22;;;;;;;6.53;2.38;;;6.80;99.90;;;;;;5056142;28;20040;-67
2023/04/14 00:05:47;;;;;;;6.90;2.40;;;6.80;99.90;;;;;;5058194;28;20029;-67
2023/04/14 00:08:13;;;;;;;6.72;2.20;;;6.80;99.90;;;;;;5056313;28;20166;-65
2023/04/14 00:10:39;;;;;;;8.25;2.70;;;6.80;99.90;;;;;;5052138;28;20052;-66
2023/04/14 00:13:04;;;;;;;9.73;2.42;;;6.70;99.90;;;;;;5053789;28;20468;-65
2023/04/14 00:15:30;;;;;;;7.78;2.40;;;6.70;99.90;;;;;;5053487;28;20449;-65
2023/04/14 00:17:55;;;;;;;6.85;2.22;;;6.60;99.90;;;;;;5053557;28;20040;-65
2023/04/14 00:20:21;;;;;;;7.85;2.35;;;6.60;99.90;;;;;;5061293;28;20405;-66
2023/04/14 00:22:47;;;;;;;7.72;2.65;;;6.60;99.90;;;;;;5056526;28;20057;-65
2023/04/14 00:25:12;;;;;;;9.57;2.70;;;6.50;99.90;;;;;;5054225;28;20041;-67
2023/04/14 00:27:38;;;;;;;8.38;3.13;;;6.50;99.90;;;;;;5052376;28;20041;-67
2023/04/14 00:30:04;;;;;;;5.22;2.08;;;6.50;99.90;;;;;;5054334;28;20122;-67
2023/04/14 00:32:30;;;;;;;7.18;2.45;;;6.50;99.90;;;;;;5054243;28;20041;-67
2023/04/14 00:34:55;;;;;;;6.57;2.28;;;6.40;99.90;;;;;;5051777;28;20148;-67
2023/04/14 00:37:22;;;;;;;6.90;2.45;;;6.40;99.90;;;;;;5060144;28;20197;-68
2023/04/14 00:39:48;;;;;;;5.28;2.20;;;6.40;99.90;;;;;;5053160;28;20112;-68
2023/04/14 00:42:13;;;;;;;5.50;2.00;;;6.40;99.90;;;;;;5057926;28;20158;-67
2023/04/14 00:44:39;;;;;;;7.50;2.50;;;6.40;99.90;;;;;;5054541;28;20044;-67
2023/04/14 00:47:05;;;;;;;7.53;2.50;;;6.40;99.90;;;;;;5051912;28;20445;-67
2023/04/14 00:49:31;;;;;;;5.82;2.28;;;6.30;99.90;;;;;;5062203;28;20045;-67
2023/04/14 00:51:57;;;;;;;6.47;2.40;;;6.30;99.90;;;;;;5063213;28;20033;-67
2023/04/14 00:54:23;;;;;;;6.72;2.47;;;6.30;99.90;;;;;;5065327;28;20075;-67
2023/04/14 00:56:52;;;;;;;7.82;3.03;;;6.20;99.90;;;;;;5056741;28;20083;-67
2023/04/14 00:59:18;;;;;;;7.43;2.95;;;6.20;99.90;;;;;;5063917;28;20053;-67
2023/04/14 01:01:44;;;;;;;6.47;2.38;;;6.20;99.90;;;;;;5058702;28;20052;-67
2023/04/14 01:04:10;;;;;;;8.70;3.22;;;6.20;99.90;;;;;;5059187;28;20068;-67
2023/04/14 01:06:35;;;;;;;6.40;2.10;;;6.10;99.90;;;;;;5064355;28;20134;-67
2023/04/14 01:09:02;;;;;;;8.57;2.40;;;6.10;99.90;;;;;;5060705;28;20047;-67
2023/04/14 01:11:58;;;;;;;5.75;2.20;;;6.10;99.90;;;;;;5053567;28;20048;-67
2023/04/14 01:14:49;;;;;;;5.30;2.30;;;6.10;99.90;;;;;;5056840;28;20439;-67
2023/04/14 01:17:35;;;;;;;7.82;2.40;;;6.00;99.90;;;;;;5058035;28;20049;-67
2023/04/14 01:20:23;;;;;;;5.85;2.20;;;6.00;99.90;;;;;;5055229;28;20407;-67
2023/04/14 01:22:58;;;;;;;7.00;2.50;;;5.90;99.90;;;;;;5056284;28;20055;-67
2023/04/14 01:25:47;;;;;;;7.00;2.35;;;5.90;99.90;;;;;;5062186;28;20534;-67
2023/04/14 01:28:16;;;;;;;7.07;2.28;;;5.90;99.90;;;;;;5057852;28;20124;-67
2023/04/14 01:31:14;;;;;;;9.68;2.28;;;5.90;99.90;;;;;;5055744;28;20084;-67
2023/04/14 01:33:44;;;;;;;6.15;2.45;;;5.80;99.90;;;;;;5056360;28;20040;-67
2023/04/14 01:36:19;;;;;;;5.85;2.20;;;5.80;99.90;;;;;;5050012;28;20040;-67
2023/04/14 01:38:47;;;;;;;6.43;2.70;;;5.80;99.90;;;;;;5049521;28;20067;-67
2023/04/14 01:41:15;;;;;;;6.35;2.40;;;5.70;99.90;;;;;;5069842;28;20120;-67
2023/04/14 01:43:44;;;;;;;8.35;2.45;;;5.70;99.90;;;;;;5057022;28;20033;-67
2023/04/14 01:46:14;;;;;;;6.07;2.30;;;5.70;99.90;;;;;;5057198;28;20044;-67
2023/04/14 01:48:40;;;;;;;5.75;2.15;;;5.70;99.90;;;;;;5051016;28;20421;-67
2023/04/14 01:51:08;;;;;;;5.03;1.92;;;5.70;99.90;;;;;;5065725;28;20066;-67
2023/04/14 01:53:37;;;;;;;4.28;2.08;;;5.70;99.90;;;;;;5052829;28;20064;-68
2023/04/14 01:56:05;;;;;;;5.55;2.28;;;5.60;99.90;;;;;;5051602;28;20155;-67
2023/04/14 01:58:31;;;;;;;8.35;2.63;;;5.60;99.90;;;;;;5051511;28;20122;-68
2023/04/14 02:00:57;;;;;;;8.85;3.03;;;5.60;99.90;;;;;;5055506;28;20052;-67
2023/04/14 02:03:25;;;;;;;7.07;2.45;;;5.50;99.90;;;;;;5053235;28;20051;-67
2023/04/14 02:05:53;;;;;;;6.38;2.40;;;5.50;99.90;;;;;;5057315;28;20041;-67
2023/04/14 02:08:21;;;;;;;7.60;2.58;;;5.50;99.90;;;;;;5056121;28;20040;-67
2023/04/14 02:10:49;;;;;;;5.30;2.30;;;5.50;99.90;;;;;;5052252;28;20037;-67
2023/04/14 02:13:18;;;;;;;6.72;2.45;;;5.50;99.90;;;;;;5047730;28;20082;-67
2023/04/14 02:15:45;;;;;;;9.15;2.97;;;5.40;99.90;;;;;;5050499;28;20116;-67
2023/04/14 02:18:10;;;;;;;7.47;2.40;;;5.40;99.90;;;;;;5054520;28;20454;-67
2023/04/14 02:20:42;;;;;;;7.18;2.35;;;5.40;99.90;;;;;;5059873;28;20123;-67
2023/04/14 02:23:08;;;;;;;7.70;2.65;;;5.40;99.90;;;;;;5049486;28;20142;-66
2023/04/14 02:25:35;;;;;;;7.68;2.80;;;5.40;99.90;;;;;;5052404;28;20060;-67
2023/04/14 02:28:08;;;;;;;8.23;2.88;;;5.40;99.90;;;;;;5051637;28;20049;-68
2023/04/14 02:30:40;;;;;;;6.40;2.38;;;5.40;99.90;;;;;;5052781;28;20052;-66
2023/04/14 02:33:11;;;;;;;9.25;2.35;;;5.40;99.90;;;;;;5053856;28;20115;-66
2023/04/14 02:35:47;;;;;;;6.47;2.63;;;5.30;99.90;;;;;;5052082;28;20531;-67
2023/04/14 02:38:21;;;;;;;8.68;2.40;;;5.30;99.90;;;;;;5051145;28;20041;-66
2023/04/14 02:40:47;;;;;;;7.88;2.58;;;5.30;99.90;;;;;;5055004;28;20116;-66
2023/04/14 02:43:19;;;;;;;5.00;2.40;;;5.30;99.90;;;;;;5064616;28;20049;-66
2023/04/14 02:45:47;;;;;;;7.80;2.80;;;5.20;99.90;;;;;;5059512;28;20499;-66
2023/04/14 02:48:16;;;;;;;7.15;2.55;;;5.20;99.90;;;;;;5058307;28;20037;-66
2023/04/14 02:50:48;;;;;;;8.35;2.38;;;5.20;99.90;;;;;;5057903;28;20114;-66
2023/04/14 02:53:17;;;;;;;7.18;2.47;;;5.20;99.90;;;;;;5065471;28;20052;-67
2023/04/14 02:55:46;;;;;;;9.75;2.50;;;5.20;99.90;;;;;;5066637;28;20047;-66
2023/04/14 02:58:12;;;;;;;6.53;2.60;;;5.20;99.90;;;;;;5053952;28;20048;-66
2023/04/14 03:00:39;;;;;;;5.30;2.45;;;5.10;99.90;;;;;;5057239;28;20037;-66
2023/04/14 03:03:06;;;;;;;7.20;2.40;;;5.10;99.90;;;;;;5072936;28;20068;-67
2023/04/14 03:05:32;;;;;;;4.35;2.17;;;5.00;99.90;;;;;;5059285;28;20143;-67
2023/04/14 03:07:59;;;;;;;7.22;2.53;;;5.00;99.90;;;;;;5054313;28;20112;-66
2023/04/14 03:10:26;;;;;;;8.23;2.10;;;5.00;99.90;;;;;;5059757;28;20105;-66
2023/04/14 03:12:52;;;;;;;6.47;2.40;;;5.00;99.90;;;;;;5058034;28;20041;-67
2023/04/14 03:15:19;;;;;;;5.25;2.10;;;5.00;99.90;;;;;;5070358;28;20444;-66
2023/04/14 03:17:52;;;;;;;5.38;2.00;;;4.90;99.90;;;;;;5051034;28;20356;-67
2023/04/14 03:20:20;;;;;;;7.05;2.10;;;4.90;99.90;;;;;;5060683;28;20161;-67
2023/04/14 03:22:56;;;;;;;6.43;2.67;;;4.90;99.90;;;;;;5053809;28;20098;-67
2023/04/14 03:25:24;;;;;;;6.22;2.20;;;4.90;99.90;;;;;;5056935;28;20033;-66
2023/04/14 03:27:51;;;;;;;7.65;2.05;;;4.90;99.90;;;;;;5054564;28;20045;-66
2023/04/14 03:30:19;;;;;;;6.07;2.22;;;4.90;99.90;;;;;;5056872;28;20032;-66
2023/04/14 03:32:48;;;;;;;8.80;2.72;;;4.80;99.90;;;;;;5052953;28;20044;-67
2023/04/14 03:35:16;;;;;;;6.43;2.00;;;4.80;99.90;;;;;;5058961;28;20048;-66
2023/04/14 03:37:42;;;;;;;5.80;1.90;;;4.80;99.90;;;;;;5055669;28;20368;-66
2023/04/14 03:40:10;;;;;;;7.13;2.40;;;4.80;99.90;;;;;;5065174;28;20044;-66
2023/04/14 03:42:39;;;;;;;6.60;2.05;;;4.70;99.90;;;;;;5063293;28;20158;-66
2023/04/14 03:45:05;;;;;;;8.52;2.58;;;4.70;99.90;;;;;;5055745;28;20123;-67
2023/04/14 03:47:31;;;;;;;7.63;2.40;;;4.70;99.90;;;;;;5054451;28;22028;-66
2023/04/14 03:50:00;;;;;;;6.78;2.35;;;4.70;99.90;;;;;;5058303;28;20044;-67
2023/04/14 03:52:28;;;;;;;6.88;2.67;;;4.70;99.90;;;;;;5052422;28;20064;-66
2023/04/14 03:54:58;;;;;;;8.10;2.60;;;4.70;99.90;;;;;;5053290;28;20048;-66
2023/04/14 03:57:28;;;;;;;10.85;2.58;;;4.70;99.90;;;;;;5053976;28;20055;-67
2023/04/14 03:59:54;;;;;;;5.82;2.40;;;4.60;99.90;;;;;;5055847;28;20063;-66
2023/04/14 04:02:21;;;;;;;6.95;2.55;;;4.60;99.90;;;;;;5055781;28;20029;-66
2023/04/14 04:04:47;;;;;;;6.85;2.42;;;4.60;99.90;;;;;;5057829;28;20075;-66
2023/04/14 04:07:14;;;;;;;7.15;2.33;;;4.60;99.90;;;;;;5056562;28;20527;-66
2023/04/14 04:09:41;;;;;;;11.13;2.45;;;4.60;99.90;;;;;;5053929;28;20068;-66
2023/04/14 04:12:10;;;;;;;6.95;2.47;;;4.60;99.90;;;;;;5058225;28;20075;-66
2023/04/14 04:14:38;;;;;;;6.45;2.40;;;4.60;99.90;;;;;;5054281;28;20091;-66
2023/04/14 04:17:06;;;;;;;7.72;2.47;;;4.60;99.90;;;;;;5054595;28;20070;-66
2023/04/14 04:19:35;;;;;;;4.72;2.30;;;4.60;99.90;;;;;;5060660;28;20145;-66
2023/04/14 04:22:02;;;;;;;5.85;2.35;;;4.60;99.90;;;;;;5061555;28;20064;-67
2023/04/14 04:24:34;;;;;;;7.88;2.67;;;4.60;99.90;;;;;;5057053;28;20112;-67
2023/04/14 04:27:00;;;;;;;7.80;2.33;;;4.50;99.90;;;;;;5057250;28;20044;-66
2023/04/14 04:29:26;;;;;;;7.15;2.50;;;4.50;99.90;;;;;;5048380;28;20146;-66
2023/04/14 04:31:51;;;;;;;7.30;2.20;;;4.50;99.90;;;;;;5049422;28;20037;-66
2023/04/14 04:34:19;;;;;;;6.78;2.90;;;4.50;99.90;;;;;;5053374;28;20123;-66
2023/04/14 04:36:45;;;;;;;7.28;2.53;;;4.50;99.90;;;;;;5055891;28;20090;-66
2023/04/14 04:39:11;;;;;;;8.35;2.55;;;4.50;99.90;;;;;;5053479;28;20179;-66
2023/04/14 04:41:36;;;;;;;6.63;2.50;;;4.50;99.90;;;;;;5052465;28;20131;-66
2023/04/14 04:44:02;;;;;;;6.78;2.72;;;4.50;99.90;;;;;;5053708;28;20043;-67
2023/04/14 04:46:46;;;;;;;6.65;2.30;;;4.50;99.90;;;;;;5054686;28;20051;-66
2023/04/14 04:49:11;;;;;;;7.28;2.45;;;4.40;99.90;;;;;;5064824;28;20397;-67
2023/04/14 04:51:37;;;;;;;6.95;2.30;;;4.40;99.90;;;;;;5060091;28;20055;-66
2023/04/14 04:54:03;;;;;;;9.40;2.78;;;4.40;99.90;;;;;;5068780;28;20056;-66
2023/04/14 04:56:28;;;;;;;7.15;2.80;;;4.40;99.90;;;;;;5057746;28;20036;-66
2023/04/14 04:58:54;;;;;;;6.07;2.42;;;4.40;99.90;;;;;;5053136;28;20072;-66
2023/04/14 05:01:19;;;;;;;8.45;2.80;;;4.40;99.90;;;;;;5052560;28;20398;-66
2023/04/14 05:03:45;;;;;;;7.93;2.42;;;4.40;99.90;;;;;;5057211;28;20057;-67
2023/04/14 05:06:11;;;;;;;5.88;2.50;;;4.40;99.90;;;;;;5058095;28;20045;-68
2023/04/14 05:08:36;;;;;;;7.32;2.67;;;4.50;99.90;;;;;;5062246;28;20068;-68
2023/04/14 05:11:02;;;;;;;7.65;2.47;;;4.50;99.90;;;;;;5062629;28;20340;-67
2023/04/14 05:13:28;;;;;;;5.55;2.65;;;4.60;99.90;;;;;;5064927;28;20735;-67
2023/04/14 05:16:07;;;;;;;6.53;3.08;;;4.70;99.90;;;;;;5063024;28;20044;-66
2023/04/14 05:18:33;;;;;;;5.13;2.60;;;5.00;99.90;;;;;;5059541;28;20044;-66
2023/04/14 05:21:12;;;;;;;7.30;2.70;;;5.30;99.90;;;;;;5058090;28;20051;-65
2023/04/14 05:23:41;;;;;;;6.65;2.30;;;5.50;99.90;;;;;;5063352;28;20105;-64
2023/04/14 05:26:07;;;;;;;7.82;2.60;;;5.90;99.90;;;;;;5062232;28;20064;-65
2023/04/14 05:28:33;;;;;;;9.15;3.08;;;6.30;99.90;;;;;;5069676;28;20361;-65
2023/04/14 05:30:59;;;;;;;6.28;2.22;;;6.20;99.90;;;;;;5063387;28;20052;-66
2023/04/14 05:33:24;;;;;;;6.15;2.40;;;6.20;99.90;;;;;;5066854;28;20029;-65
2023/04/14 05:35:50;;;;;;;5.75;2.60;;;6.10;99.90;;;;;;5061004;28;20483;-66
2023/04/14 05:38:17;;;;;;;9.27;2.33;;;6.10;99.90;;;;;;5054442;28;20040;-66
2023/04/14 05:40:43;;;;;;;8.57;2.70;;;6.10;99.90;;;;;;5058159;28;20047;-66
2023/04/14 05:43:09;;;;;;;6.70;2.15;;;6.20;99.90;;;;;;5065645;28;20452;-66
2023/04/14 05:45:35;;;;;;;5.72;2.25;;;6.20;99.90;;;;;;5056680;28;20056;-66
2023/04/14 05:48:01;;;;;;;5.82;2.00;;;6.20;99.90;;;;;;5050092;28;20056;-66
2023/04/14 05:50:27;;;;;;;7.05;2.72;;;6.30;99.90;;;;;;5066480;28;20064;-68
2023/04/14 05:52:52;;;;;;;5.63;2.22;;;6.30;99.90;;;;;;5060091;28;20074;-67
2023/04/14 05:55:19;;;;;;;7.25;2.63;;;6.30;99.90;;;;;;5063398;28;20533;-66
2023/04/14 05:57:45;;;;;;;7.78;2.60;;;6.40;99.90;;;;;;5060720;28;20036;-65
2023/04/14 06:00:11;;;;;;;8.45;3.10;;;6.40;99.90;;;;;;5068439;28;20056;-67
2023/04/14 06:02:37;;;;;;;6.15;2.58;;;6.40;99.90;;;;;;5063220;28;20037;-66
2023/04/14 06:05:06;;;;;;;8.25;3.45;;;6.50;99.90;;;;;;5060094;28;20064;-66
2023/04/14 06:07:34;;;;;;;8.07;2.58;;;6.50;99.90;;;;;;5063692;28;20164;-66
2023/04/14 06:10:00;;;;;;;9.00;2.90;;;6.60;99.90;;;;;;5062021;28;20344;-66
2023/04/14 06:12:26;;;;;;;5.95;2.65;;;6.60;99.90;;;;;;5057737;28;20164;-66
2023/04/14 06:14:52;;;;;;;6.88;2.70;;;6.60;99.90;;;;;;5050950;28;20064;-66
2023/04/14 06:17:17;;;;;;;6.50;3.30;;;6.70;99.90;;;;;;5062258;28;20444;-66
2023/04/14 06:19:45;;;;;;;8.15;3.47;;;6.70;99.90;;;;;;5055953;28;20395;-66
2023/04/14 06:22:15;;;;;;;8.05;2.92;;;6.80;99.90;;;;;;5059959;28;20044;-66
2023/04/14 06:24:41;;;;;;;6.70;2.90;;;6.90;99.90;;;;;;5057957;28;20105;-66
2023/04/14 06:27:08;;;;;;;7.97;3.10;;;6.90;99.90;;;;;;5051050;28;20172;-66
2023/04/14 06:29:33;;;;;;;7.05;3.25;;;7.00;99.90;;;;;;5063188;28;20545;-66
2023/04/14 06:31:59;;;;;;;7.97;3.58;;;7.10;99.90;;;;;;5064065;28;20044;-66
2023/04/14 06:34:24;;;;;;;9.05;3.40;;;7.20;99.90;;;;;;5055351;28;20045;-66
2023/04/14 06:36:51;;;;;;;9.30;3.80;;;7.30;99.90;;;;;;5055885;28;20043;-66
2023/04/14 06:39:19;;;;;;;11.77;4.00;;;7.30;99.90;;;;;;5067511;28;20123;-67
2023/04/14 06:41:45;;;;;;;9.98;3.45;;;7.40;99.90;;;;;;5061619;28;20492;-66
2023/04/14 06:44:11;;;;;;;8.48;3.47;;;7.50;99.90;;;;;;5050533;28;20048;-66
2023/04/14 06:46:36;;;;;;;7.47;3.40;;;7.60;99.90;;;;;;5059602;28;20041;-66
2023/04/14 06:49:02;;;;;;;8.32;3.65;;;7.60;99.90;;;;;;5050712;28;20052;-66
2023/04/14 06:51:31;;;;;;;9.93;3.72;;;7.70;99.90;;;;;;5066203;28;20404;-65
2023/04/14 06:53:56;;;;;;;10.02;4.20;;;7.80;99.90;;;;;;5055148;28;20149;-67
2023/04/14 06:56:22;;;;;;;8.93;3.78;;;7.90;99.90;;;;;;5049791;28;20479;-64
2023/04/14 06:58:47;;;;;;;9.23;3.90;;;7.90;99.90;;;;;;5056275;28;20033;-67
2023/04/14 07:01:13;;;;;;;8.65;3.58;;;8.00;99.90;;;;;;5053622;28;20124;-65
2023/04/14 07:03:39;;;;;;;10.18;3.75;;;8.10;99.90;;;;;;5049141;28;20515;-65
2023/04/14 07:06:07;;;;;;;9.13;3.55;;;8.20;99.90;;;;;;5064812;28;20105;-65
2023/04/14 07:08:33;;;;;;;9.13;3.60;;;8.30;99.90;;;;;;5063175;28;20091;-65
2023/04/14 07:11:04;;;;;;;10.02;3.90;;;8.30;99.90;;;;;;5054067;28;20044;-66
2023/04/14 07:13:29;;;;;;;8.95;3.80;;;8.50;99.90;;;;;;5059597;28;20105;-66
2023/04/14 07:15:55;;;;;;;9.07;3.55;;;8.50;99.90;;;;;;5051243;28;20081;-66
2023/04/14 07:18:21;;;;;;;9.93;3.30;;;8.60;99.90;;;;;;5055650;28;20045;-66
2023/04/14 07:20:53;;;;;;;6.38;2.83;;;8.70;99.90;;;;;;5057349;28;20479;-65
2023/04/14 07:23:20;;;;;;;7.80;3.30;;;8.80;99.90;;;;;;5061827;28;20559;-66
2023/04/14 07:25:50;;;;;;;11.23;3.40;;;8.90;99.90;;;;;;5048105;28;20090;-65
2023/04/14 07:28:16;;;;;;;9.25;3.22;;;9.00;99.90;;;;;;5050871;28;20044;-65
2023/04/14 07:30:42;;;;;;;7.97;3.45;;;9.10;99.90;;;;;;5066590;28;20045;-66
2023/04/14 07:33:07;;;;;;;11.85;3.38;;;9.20;99.90;;;;;;5051521;28;20045;-65
2023/04/14 07:35:33;;;;;;;8.00;3.22;;;9.30;99.90;;;;;;5074205;28;20384;-66
2023/04/14 07:37:59;;;;;;;9.07;3.25;;;9.40;99.90;;;;;;5069967;28;20037;-66
2023/04/14 07:40:25;;;;;;;7.85;3.40;;;9.40;99.90;;;;;;5066144;28;20074;-66
2023/04/14 07:42:51;;;;;;;10.30;3.95;;;9.60;99.90;;;;;;5067322;28;20049;-66
2023/04/14 07:45:17;;;;;;;7.38;3.35;;;9.70;99.90;;;;;;5069546;28;20040;-66
2023/04/14 07:47:42;;;;;;;8.68;3.20;;;9.80;99.90;;;;;;5064369;28;20049;-65
2023/04/14 07:50:08;;;;;;;10.30;3.20;;;9.90;99.90;;;;;;5049737;28;20094;-66
2023/04/14 07:52:34;;;;;;;8.80;2.88;;;9.90;99.90;;;;;;5052169;28;20424;-66
2023/04/14 07:55:00;;;;;;;7.75;3.30;;;10.00;99.90;;;;;;5060466;28;20424;-66
2023/04/14 07:57:25;;;;;;;9.63;3.25;;;10.10;99.90;;;;;;5050136;28;20279;-66
2023/04/14 07:59:51;;;;;;;8.35;2.75;;;10.20;99.90;;;;;;5053376;28;20040;-66
2023/04/14 08:02:16;;;;;;;9.80;2.88;;;10.30;99.90;;;;;;5068238;28;20145;-66
2023/04/14 08:04:43;;;;;;;7.40;2.60;;;10.50;99.90;;;;;;5047805;28;20456;-65
2023/04/14 08:07:08;;;;;;;8.88;3.13;;;10.60;99.90;;;;;;5060957;28;20072;-66
2023/04/14 08:09:34;;;;;;;7.95;2.88;;;10.70;99.90;;;;;;5049952;28;20151;-66
2023/04/14 08:12:00;;;;;;;8.70;3.28;;;10.80;99.90;;;;;;5055184;28;20055;-66
2023/04/14 08:14:26;;;;;;;9.68;2.80;;;10.90;99.90;;;;;;5039299;28;20049;-66
2023/04/14 08:16:52;;;;;;;9.43;3.40;;;11.00;99.90;;;;;;5060471;28;20044;-66
2023/04/14 08:19:17;;;;;;;7.60;2.90;;;11.10;99.90;;;;;;5062039;28;20037;-66
2023/04/14 08:21:43;;;;;;;9.52;2.90;;;11.20;99.90;;;;;;5057329;28;20483;-66
2023/04/14 08:24:09;;;;;;;8.20;2.53;;;11.20;99.90;;;;;;5056616;28;20060;-66
2023/04/14 08:26:34;;;;;;;8.48;2.83;;;11.30;99.90;;;;;;5054130;28;20472;-66
2023/04/14 08:29:00;;;;;;;10.43;2.95;;;11.40;99.90;;;;;;5049070;28;20138;-65
2023/04/14 08:31:25;;;;;;;8.23;2.42;;;11.40;99.90;;;;;;5050023;28;20037;-66
2023/04/14 08:33:51;;;;;;;8.93;2.60;;;11.40;99.90;;;;;;5060265;28;20033;-66
2023/04/14 08:36:18;;;;;;;12.45;3.08;;;11.60;99.90;;;;;;5051527;28;20041;-66
2023/04/14 08:38:44;;;;;;;8.40;2.58;;;11.60;99.90;;;;;;5072649;28;20044;-65
2023/04/14 08:41:12;;;;;;;7.85;2.60;;;11.70;99.90;;;;;;5066006;28;20056;-66
2023/04/14 08:43:37;;;;;;;9.02;2.72;;;11.80;99.90;;;;;;5068731;28;20064;-66
2023/04/14 08:46:03;;;;;;;8.30;2.47;;;11.90;99.90;;;;;;5063178;28;20036;-65
2023/04/14 08:48:30;;;;;;;7.40;3.08;;;11.90;99.90;;;;;;5052552;28;20056;-65
2023/04/14 08:51:17;;;;;;;10.20;2.67;;;12.00;99.90;;;;;;5047847;28;20049;-65
2023/04/14 08:53:45;;;;;;;10.35;2.70;;;12.10;99.90;;;;;;5061374;28;20154;-67
2023/04/14 08:56:15;;;;;;;9.10;2.50;;;12.10;99.90;;;;;;5072294;28;20127;-66
2023/04/14 08:58:41;;;;;;;9.65;2.90;;;12.20;99.90;;;;;;5067157;28;20144;-65
2023/04/14 09:01:07;;;;;;;5.60;1.98;;;12.30;99.90;;;;;;5075212;28;20131;-67
2023/04/14 09:03:33;;;;;;;7.78;2.67;;;12.40;99.90;;;;;;5071535;28;20120;-66
2023/04/14 09:05:59;;;;;;;8.07;2.60;;;12.50;99.90;;;;;;5065560;28;20051;-66
2023/04/14 09:08:26;;;;;;;10.15;2.83;;;12.60;99.90;;;;;;5061524;28;20041;-66
2023/04/14 09:10:53;;;;;;;8.02;2.58;;;12.60;99.90;;;;;;5056742;28;20509;-66
2023/04/14 09:13:20;;;;;;;12.52;3.35;;;12.60;99.90;;;;;;5066251;28;20056;-66
2023/04/14 09:15:45;;;;;;;9.85;3.42;;;12.70;99.90;;;;;;5061790;28;20051;-66
2023/04/14 09:18:11;;;;;;;8.15;3.00;;;12.70;99.90;;;;;;5054168;28;20045;-66
2023/04/14 09:20:37;;;;;;;8.65;2.85;;;12.80;99.90;;;;;;5060890;28;20037;-66
2023/04/14 09:23:03;;;;;;;10.60;2.60;;;12.90;99.90;;;;;;5063690;28;20040;-66
2023/04/14 09:25:29;;;;;;;8.68;2.83;;;13.00;99.90;;;;;;5055443;28;20045;-66
2023/04/14 09:27:55;;;;;;;7.72;2.42;;;13.00;99.90;;;;;;5048073;28;20053;-66
2023/04/14 09:30:21;;;;;;;7.13;2.60;;;13.10;99.90;;;;;;5047675;28;20045;-66
2023/04/14 09:32:52;;;;;;;9.60;2.40;;;13.20;99.90;;;;;;5054451;28;20406;-66
2023/04/14 09:35:18;;;;;;;6.80;2.50;;;13.20;99.90;;;;;;5047935;28;20063;-66
2023/04/14 09:37:45;;;;;;;6.38;2.38;;;13.30;99.90;;;;;;5047874;28;20053;-66
2023/04/14 09:40:31;;;;;;;7.38;2.38;;;13.40;99.90;;;;;;5060078;28;20140;-66
2023/04/14 09:42:58;;;;;;;6.25;2.10;;;13.40;99.90;;;;;;5067702;28;20041;-66
2023/04/14 09:45:43;;;;;;;5.03;2.10;;;13.40;99.90;;;;;;5062888;28;20044;-66
2023/04/14 09:48:12;;;;;;;;;;;13.30;99.90;;;;;;5067501;28;20542;-67
2023/04/14 09:50:58;;;;;;;7.10;2.20;;;13.20;99.90;;;;;;5056352;28;19990;-67
2023/04/14 09:53:29;;;;;;;7.90;2.20;;;12.90;99.90;;;;;;5059987;28;20193;-67
2023/04/14 09:55:56;;;;;;;6.43;2.10;;;12.90;99.90;;;;;;5060343;28;20360;-67
2023/04/14 09:58:22;;;;;;;4.88;1.95;;;12.90;99.90;;;;;;5063833;28;20060;-67
2023/04/14 10:00:51;;;;;;;5.57;1.88;;;13.00;99.90;;;;;;5051351;28;20052;-66
2023/04/14 10:03:31;;;;;;;8.43;2.30;;;13.20;99.90;;;;;;5066544;28;20121;-66
2023/04/14 10:05:56;;;;;;;5.88;2.00;;;13.40;99.90;;;;;;5055725;28;20108;-66
2023/04/14 10:08:33;;;;;;;7.18;2.15;;;13.60;99.90;;;;;;5051922;28;20120;-66
2023/04/14 10:11:22;;;;;;;7.70;2.08;;;13.80;99.90;;;;;;5051350;28;20068;-66
2023/04/14 10:13:50;;;;;;;5.63;1.60;;;14.00;99.90;;;;;;5054582;28;20099;-67
2023/04/14 10:16:16;;;;;;;7.43;1.90;;;14.00;99.90;;;;;;5052904;28;20044;-67
2023/04/14 10:18:42;;;;;;;4.47;1.60;;;13.90;99.90;;;;;;5062286;28;20460;-66
2023/04/14 10:21:09;;;;;;;5.65;1.60;;;13.70;99.90;;;;;;5066025;28;20098;-66
2023/04/14 10:23:40;;;;;;;6.55;1.80;;;13.70;99.90;;;;;;5057596;28;20064;-66
2023/04/14 10:26:11;;;;;;;8.20;2.30;;;13.60;99.90;;;;;;5062281;28;20048;-67
2023/04/14 10:28:39;;;;;;;7.38;1.90;;;13.70;99.90;;;;;;5062343;28;20466;-66
2023/04/14 10:31:12;;;;;;;5.65;1.42;;;14.00;99.90;;;;;;5052189;28;20045;-67
2023/04/14 10:33:37;;;;;;;7.20;1.80;;;14.40;99.90;;;;;;5050753;28;20036;-66
2023/04/14 10:36:03;;;;;;;4.38;1.42;;;14.60;99.90;;;;;;5054080;28;20041;-67
2023/04/14 10:38:44;;;;;;;5.35;1.80;;;14.80;99.90;;;;;;5059936;28;20545;-67
2023/04/14 10:41:11;;;;;;;4.97;1.90;;;14.80;99.90;;;;;;5052430;28;20526;-67
2023/04/14 10:43:38;;;;;;;6.13;1.65;;;14.70;99.90;;;;;;5060733;28;20057;-67
2023/04/14 10:46:05;;;;;;;5.90;1.70;;;14.70;99.90;;;;;;5060344;28;20079;-67
2023/04/14 10:48:32;;;;;;;8.85;2.20;;;14.60;99.90;;;;;;5057814;28;20124;-67
2023/04/14 10:50:58;;;;;;;5.85;2.08;;;14.40;99.90;;;;;;5058924;28;20423;-67
2023/04/14 10:53:28;;;;;;;5.07;1.90;;;14.30;99.90;;;;;;5064569;28;20052;-66
2023/04/14 10:55:57;;;;;;;6.35;2.00;;;14.20;99.90;;;;;;5052405;28;20534;-67
2023/04/14 10:58:28;;;;;;;7.20;2.53;;;14.10;99.90;;;;;;5046362;28;20064;-67
2023/04/14 11:00:56;;;;;;;8.02;2.22;;;14.10;99.90;;;;;;5056461;28;20044;-67
2023/04/14 11:03:22;;;;;;;8.13;2.20;;;14.20;99.90;;;;;;5064304;28;20480;-67
2023/04/14 11:05:52;;;;;;;8.75;2.28;;;14.40;99.90;;;;;;5056828;28;20036;-68
2023/04/14 11:08:18;;;;;;;7.03;2.10;;;14.40;99.90;;;;;;5066664;28;20092;-67
2023/04/14 11:10:50;;;;;;;9.93;2.20;;;14.50;99.90;;;;;;5059783;28;20400;-68
2023/04/14 11:13:16;;;;;;;6.88;2.40;;;14.70;99.90;;;;;;5061018;28;20045;-67
2023/04/14 11:15:47;;;;;;;9.15;2.50;;;14.90;99.90;;;;;;5064365;28;20509;-67
2023/04/14 11:18:13;;;;;;;5.13;1.98;;;15.00;99.90;;;;;;5056824;28;20064;-67
2023/04/14 11:20:42;;;;;;;6.20;2.03;;;14.80;99.90;;;;;;5056231;28;20057;-67
2023/04/14 11:23:09;;;;;;;9.05;2.20;;;14.80;99.90;;;;;;5059248;28;20495;-67
2023/04/14 11:25:35;;;;;;;6.72;2.00;;;15.00;99.90;;;;;;5053578;28;20041;-67
2023/04/14 11:28:02;;;;;;;5.45;2.00;;;15.10;99.90;;;;;;5053016;28;20056;-67
2023/04/14 11:30:28;;;;;;;8.40;2.45;;;15.30;99.90;;;;;;5052360;28;20480;-67
2023/04/14 11:32:58;;;;;;;7.97;2.20;;;15.40;99.90;;;;;;5060057;28;20041;-67
2023/04/14 11:35:26;;;;;;;7.90;1.90;;;15.30;99.20;;;;;;5059042;28;20119;-67
2023/04/14 11:37:55;;;;;;;6.50;2.10;;;15.20;98.70;;;;;;5065950;28;20048;-67
2023/04/14 11:40:22;;;;;;;6.03;1.98;;;15.00;98.80;;;;;;5069847;28;20068;-67
2023/04/14 11:42:53;;;;;;;6.43;2.08;;;15.00;99.30;;;;;;5072722;28;20048;-67
2023/04/14 11:45:18;;;;;;;5.93;1.88;;;15.10;98.50;;;;;;5072501;28;20039;-66
2023/04/14 11:48:02;;;;;;;4.72;1.83;;;15.20;99.20;;;;;;5078009;28;20040;-67
2023/04/14 11:50:33;;;;;;;6.10;1.70;;;15.40;99.40;;;;;;5063532;28;20037;-67
2023/04/14 11:52:59;;;;;;;5.78;1.80;;;15.30;97.60;;;;;;5064671;28;20053;-67
2023/04/14 11:55:29;;;;;;;7.15;2.10;;;15.30;98.00;;;;;;5062115;28;20057;-67
2023/04/14 11:57:55;;;;;;;7.63;2.50;;;15.20;97.70;;;;;;5052691;28;20045;-67
2023/04/14 12:00:23;;;;;;;5.97;1.83;;;15.10;97.10;;;;;;5058131;28;20045;-67
2023/04/14 12:02:49;;;;;;;8.13;2.60;;;15.30;97.60;;;;;;5057087;28;20056;-67
2023/04/14 12:05:20;;;;;;;6.30;2.00;;;15.30;97.20;;;;;;5062990;28;20133;-67
2023/04/14 12:07:47;;;;;;;5.82;1.90;;;15.20;96.30;;;;;;5072636;28;20044;-67
2023/04/14 12:10:14;;;;;;;8.05;2.10;;;15.10;96.40;;;;;;5067111;28;20044;-67
2023/04/14 12:12:40;;;;;;;8.38;2.10;;;15.00;96.80;;;;;;5059269;28;20044;-67
2023/04/14 12:15:06;;;;;;;6.20;1.67;;;15.00;96.30;;;;;;5064351;28;20055;-67
2023/04/14 12:17:32;;;;;;;6.97;2.20;;;15.10;96.70;;;;;;5050835;28;20167;-67
2023/04/14 12:19:58;;;;;;;5.70;1.70;;;15.20;95.70;;;;;;5055895;28;20116;-67
2023/04/14 12:22:28;;;;;;;5.95;2.08;;;15.50;95.20;;;;;;5052058;28;20136;-67
2023/04/14 12:24:55;;;;;;;8.32;2.30;;;15.60;95.80;;;;;;5063496;28;20593;-67
2023/04/14 12:27:22;;;;;;;4.53;1.77;;;15.70;95.20;;;;;;5056494;28;20326;-67
2023/04/14 12:29:49;;;;;;;7.68;2.08;;;15.80;95.00;;;;;;5055229;28;20101;-67
2023/04/14 12:32:15;;;;;;;5.80;1.67;;;15.90;93.80;;;;;;5071179;28;20048;-67
2023/04/14 12:34:56;;;;;;;5.38;1.55;;;16.20;94.10;;;;;;5067793;28;20091;-67
2023/04/14 12:37:25;;;;;;;5.43;1.45;;;16.30;92.90;;;;;;5068277;28;20051;-67
2023/04/14 12:39:58;;;;;;;6.38;1.90;;;16.40;92.30;;;;;;5066111;28;20044;-67
2023/04/14 12:42:28;;;;;;;6.68;1.88;;;16.30;91.90;;;;;;5067330;28;20446;-67
2023/04/14 12:45:01;;;;;;;8.25;1.60;;;16.30;92.00;;;;;;5066445;28;20041;-67
2023/04/14 12:47:31;;;;;;;5.00;1.60;;;16.30;91.40;;;;;;5068022;28;20442;-67
2023/04/14 12:49:59;;;;;;;5.35;1.60;;;16.40;90.70;;;;;;5065489;28;20133;-67
2023/04/14 12:52:40;;;;;;;6.90;1.52;;;16.30;90.50;;;;;;5069583;28;20056;-67
2023/04/14 12:55:19;;;;;;;6.47;1.92;;;16.30;87.10;;;;;;5058433;28;20081;-67
2023/04/14 12:57:45;;;;;;;5.45;1.80;;;16.10;85.30;;;;;;5055126;28;20048;-67